createdAt,value
2022-10-17T00:00:35.836Z,2.00
2022-10-17T00:01:37.565Z,1.70
2022-10-17T00:02:39.276Z,1.70
2022-10-17T00:03:41.279Z,1.83
2022-10-17T00:04:43.001Z,1.70
2022-10-17T00:05:47.258Z,1.70
2022-10-17T00:06:48.901Z,1.80
2022-10-17T00:07:51.212Z,1.80
2022-10-17T00:08:52.912Z,1.58
2022-10-17T00:09:54.658Z,1.80
2022-10-17T00:10:59.588Z,1.90
2022-10-17T00:12:02.641Z,1.58
2022-10-17T00:13:04.685Z,1.80
2022-10-17T00:14:06.429Z,1.90
2022-10-17T00:15:08.964Z,1.90
2022-10-17T00:16:11.055Z,1.70
2022-10-17T00:17:12.765Z,2.00
2022-10-17T00:18:14.423Z,1.63
2022-10-17T00:19:16.157Z,1.80
2022-10-17T00:20:18.051Z,1.60
2022-10-17T00:21:22.120Z,1.70
2022-10-17T00:22:23.814Z,1.60
2022-10-17T00:23:27.518Z,1.90
2022-10-17T00:24:31.230Z,1.80
2022-10-17T00:25:32.907Z,1.80
2022-10-17T00:26:34.545Z,1.92
2022-10-17T00:27:41.521Z,1.73
2022-10-17T00:28:45.900Z,1.90
2022-10-17T00:29:51.930Z,1.88
2022-10-17T00:30:58.792Z,1.75
2022-10-17T00:32:00.487Z,1.50
2022-10-17T00:33:02.278Z,1.40
2022-10-17T00:34:03.999Z,1.73
2022-10-17T00:35:06.415Z,1.85
2022-10-17T00:36:14.320Z,1.60
2022-10-17T00:37:16.045Z,1.80
2022-10-17T00:38:17.746Z,1.75
2022-10-17T00:39:19.548Z,1.67
2022-10-17T00:40:21.261Z,1.83
2022-10-17T00:41:33.533Z,2.13
2022-10-17T00:42:35.468Z,1.50
2022-10-17T00:43:52.210Z,1.80
2022-10-17T00:45:14.607Z,1.87
2022-10-17T00:46:16.287Z,1.77
2022-10-17T00:47:20.972Z,1.80
2022-10-17T00:48:25.558Z,1.75
2022-10-17T00:49:31.061Z,2.03
2022-10-17T00:50:34.346Z,1.98
2022-10-17T00:51:46.704Z,1.98
2022-10-17T00:52:50.469Z,2.10
2022-10-17T00:53:52.229Z,2.05
2022-10-17T00:55:01.655Z,2.10
2022-10-17T00:56:03.596Z,2.30
2022-10-17T00:57:05.729Z,1.90
2022-10-17T00:58:07.688Z,1.88
2022-10-17T00:59:12.309Z,2.15
2022-10-17T01:00:15.781Z,1.77
2022-10-17T01:01:17.598Z,2.10
2022-10-17T01:02:21.521Z,1.90
2022-10-17T01:03:23.733Z,1.95
2022-10-17T01:04:25.399Z,2.47
2022-10-17T01:05:27.142Z,2.35
2022-10-17T01:06:28.783Z,2.63
2022-10-17T01:07:34.652Z,2.40
2022-10-17T01:08:39.265Z,2.20
2022-10-17T01:09:42.287Z,2.63
2022-10-17T01:11:08.084Z,2.58
2022-10-17T01:12:25.965Z,2.63
2022-10-17T01:13:38.096Z,2.72
2022-10-17T01:15:05.838Z,2.53
2022-10-17T01:16:11.479Z,2.70
2022-10-17T01:17:41.279Z,2.60
2022-10-17T01:18:45.655Z,3.00
2022-10-17T01:20:35.570Z,3.10
2022-10-17T01:22:00.098Z,3.28
2022-10-17T01:23:25.762Z,3.78
2022-10-17T01:24:58.519Z,3.42
2022-10-17T01:26:37.838Z,4.03
2022-10-17T01:28:02.819Z,4.28
2022-10-17T01:29:40.239Z,3.80
2022-10-17T01:30:59.452Z,4.20
2022-10-17T01:32:22.898Z,4.60
2022-10-17T01:33:33.492Z,5.40
2022-10-17T01:34:46.847Z,5.05
2022-10-17T01:36:27.540Z,5.65
2022-10-17T01:37:55.994Z,6.07
2022-10-17T01:39:16.096Z,6.15
2022-10-17T01:40:22.777Z,5.95
2022-10-17T01:41:40.456Z,5.82
2022-10-17T01:43:05.910Z,6.38
2022-10-17T01:44:18.184Z,5.90
2022-10-17T01:45:32.295Z,5.90
2022-10-17T01:46:38.170Z,6.30
2022-10-17T01:47:41.583Z,6.00
2022-10-17T01:48:45.351Z,6.32
2022-10-17T01:49:49.788Z,6.10
2022-10-17T01:50:59.878Z,7.60
2022-10-17T01:52:07.978Z,6.25
2022-10-17T01:53:26.568Z,6.80
2022-10-17T01:54:33.484Z,7.13
2022-10-17T01:55:39.091Z,7.20
2022-10-17T01:56:42.758Z,7.28
2022-10-17T01:57:50.946Z,7.23
2022-10-17T01:59:09.414Z,7.15
2022-10-17T02:00:15.691Z,6.75
2022-10-17T02:01:18.325Z,6.50
2022-10-17T02:02:21.237Z,7.13
2022-10-17T02:03:24.905Z,7.30
2022-10-17T02:04:26.759Z,7.38
2022-10-17T02:05:34.551Z,7.00
2022-10-17T02:06:37.450Z,6.88
2022-10-17T02:07:41.450Z,7.35
2022-10-17T02:08:48.752Z,7.73
2022-10-17T02:09:50.500Z,7.93
2022-10-17T02:10:59.156Z,7.68
2022-10-17T02:12:34.989Z,7.22
2022-10-17T02:13:51.654Z,7.43
2022-10-17T02:14:53.266Z,7.25
2022-10-17T02:16:00.522Z,8.20
2022-10-17T02:17:13.705Z,7.78
2022-10-17T02:18:24.124Z,8.30
2022-10-17T02:19:45.479Z,8.30
2022-10-17T02:20:59.624Z,7.67
2022-10-17T02:22:13.070Z,8.00
2022-10-17T02:23:30.464Z,7.55
2022-10-17T02:24:51.946Z,7.75
2022-10-17T02:26:17.753Z,8.05
2022-10-17T02:27:33.183Z,7.72
2022-10-17T02:29:07.780Z,7.93
2022-10-17T02:30:33.398Z,7.43
2022-10-17T02:31:43.900Z,8.07
2022-10-17T02:33:05.634Z,7.93
2022-10-17T02:34:13.294Z,7.57
2022-10-17T02:35:16.874Z,8.07
2022-10-17T02:36:26.345Z,8.23
2022-10-17T02:37:30.063Z,8.25
2022-10-17T02:38:34.569Z,9.38
2022-10-17T02:39:38.144Z,8.40
2022-10-17T02:40:40.656Z,8.45
2022-10-17T02:41:44.119Z,9.07
2022-10-17T02:42:46.547Z,8.20
2022-10-17T02:43:50.217Z,8.45
2022-10-17T02:44:53.849Z,8.20
2022-10-17T02:45:56.656Z,8.65
2022-10-17T02:47:08.844Z,8.80
2022-10-17T02:48:39.001Z,8.65
2022-10-17T02:49:43.813Z,8.30
2022-10-17T02:50:52.520Z,8.10
2022-10-17T02:52:17.660Z,8.13
2022-10-17T02:53:30.302Z,8.05
2022-10-17T02:54:44.466Z,8.20
2022-10-17T02:55:53.864Z,8.15
2022-10-17T02:57:00.982Z,8.83
2022-10-17T02:58:16.189Z,8.23
2022-10-17T02:59:21.349Z,8.50
2022-10-17T03:00:24.779Z,7.72
2022-10-17T03:01:27.336Z,8.60
2022-10-17T03:02:29.327Z,8.15
2022-10-17T03:03:32.485Z,8.68
2022-10-17T03:04:34.805Z,8.10
2022-10-17T03:05:36.524Z,8.30
2022-10-17T03:06:38.703Z,8.45
2022-10-17T03:07:40.439Z,8.73
2022-10-17T03:08:42.136Z,8.73
2022-10-17T03:09:43.804Z,8.43
2022-10-17T03:10:45.669Z,7.93
2022-10-17T03:11:47.357Z,8.68
2022-10-17T03:12:49.183Z,7.45
2022-10-17T03:13:50.810Z,7.70
2022-10-17T03:14:52.470Z,8.32
2022-10-17T03:15:55.717Z,8.13
2022-10-17T03:16:57.383Z,8.00
2022-10-17T03:17:59.029Z,8.90
2022-10-17T03:19:00.736Z,8.10
2022-10-17T03:20:02.911Z,7.60
2022-10-17T03:21:04.669Z,7.80
2022-10-17T03:22:06.328Z,6.93
2022-10-17T03:23:08.004Z,7.10
2022-10-17T03:24:09.653Z,7.22
2022-10-17T03:25:11.340Z,8.02
2022-10-17T03:26:13.188Z,7.15
2022-10-17T03:27:14.853Z,7.03
2022-10-17T03:28:16.532Z,7.17
2022-10-17T03:29:18.325Z,7.38
2022-10-17T03:30:19.981Z,7.20
2022-10-17T03:31:22.397Z,6.95
2022-10-17T03:32:24.054Z,6.78
2022-10-17T03:33:25.715Z,7.05
2022-10-17T03:34:27.347Z,7.18
2022-10-17T03:35:29.042Z,6.90
2022-10-17T03:36:30.750Z,7.18
2022-10-17T03:37:32.657Z,7.68
2022-10-17T03:38:34.803Z,7.93
2022-10-17T03:39:36.469Z,7.75
2022-10-17T03:40:38.132Z,8.38
2022-10-17T03:41:39.976Z,8.00
2022-10-17T03:42:41.669Z,8.25
2022-10-17T03:43:43.411Z,8.32
2022-10-17T03:44:45.121Z,8.80
2022-10-17T03:45:46.775Z,8.38
2022-10-17T03:46:48.411Z,8.63
2022-10-17T03:47:50.066Z,9.15
2022-10-17T03:48:51.726Z,9.07
2022-10-17T03:49:53.767Z,9.57
2022-10-17T03:51:00.403Z,9.73
2022-10-17T03:52:02.419Z,10.10
2022-10-17T03:53:04.090Z,9.73
2022-10-17T03:54:05.777Z,9.35
2022-10-17T03:55:07.861Z,10.07
2022-10-17T03:56:18.806Z,10.25
2022-10-17T03:57:20.589Z,10.02
2022-10-17T03:58:22.281Z,10.57
2022-10-17T03:59:23.990Z,9.87
2022-10-17T04:00:25.656Z,10.05
2022-10-17T04:01:27.429Z,10.23
2022-10-17T04:02:29.185Z,11.43
2022-10-17T04:03:31.026Z,10.57
2022-10-17T04:04:32.689Z,10.82
2022-10-17T04:05:34.350Z,9.88
2022-10-17T04:06:36.978Z,11.50
2022-10-17T04:07:38.655Z,10.10
2022-10-17T04:08:40.421Z,10.68
2022-10-17T04:09:42.069Z,12.37
2022-10-17T04:10:43.853Z,11.93
2022-10-17T04:11:45.585Z,12.52
2022-10-17T04:12:47.237Z,12.15
2022-10-17T04:13:56.398Z,11.40
2022-10-17T04:14:58.057Z,10.88
2022-10-17T04:16:02.359Z,10.40
2022-10-17T04:17:04.338Z,10.65
2022-10-17T04:19:13.964Z,10.88
2022-10-17T04:20:15.712Z,11.03
2022-10-17T04:21:18.285Z,11.45
2022-10-17T04:22:19.919Z,11.10
2022-10-17T04:23:21.962Z,11.45
2022-10-17T04:24:23.722Z,11.27
2022-10-17T04:25:25.371Z,11.10
2022-10-17T04:26:27.780Z,11.30
2022-10-17T04:27:29.399Z,12.23
2022-10-17T04:28:32.238Z,11.60
2022-10-17T04:29:34.088Z,11.27
2022-10-17T04:30:35.807Z,12.50
2022-10-17T04:31:37.722Z,12.90
2022-10-17T04:32:39.460Z,13.35
2022-10-17T04:33:41.955Z,12.52
2022-10-17T04:34:43.729Z,13.90
2022-10-17T04:36:01.787Z,13.75
2022-10-17T04:37:03.416Z,12.90
2022-10-17T04:38:05.087Z,13.52
2022-10-17T04:39:06.845Z,14.38
2022-10-17T04:40:09.290Z,13.23
2022-10-17T04:41:14.257Z,13.53
2022-10-17T04:42:15.875Z,13.45
2022-10-17T04:43:17.558Z,13.85
2022-10-17T04:44:20.752Z,14.07
2022-10-17T04:45:22.393Z,14.43
2022-10-17T04:46:24.112Z,14.07
2022-10-17T04:47:25.775Z,13.45
2022-10-17T04:48:28.792Z,16.05
2022-10-17T04:49:30.505Z,14.32
2022-10-17T04:50:32.229Z,14.23
2022-10-17T04:51:33.903Z,14.50
2022-10-17T04:52:37.509Z,13.77
2022-10-17T04:53:40.138Z,14.55
2022-10-17T04:54:41.803Z,13.95
2022-10-17T04:55:43.444Z,14.80
2022-10-17T04:56:45.220Z,14.15
2022-10-17T04:57:46.873Z,14.32
2022-10-17T04:58:49.281Z,15.50
2022-10-17T04:59:51.441Z,14.95
2022-10-17T05:00:53.145Z,15.25
2022-10-17T05:01:54.875Z,15.20
2022-10-17T05:02:56.648Z,15.05
2022-10-17T05:03:58.388Z,15.57
2022-10-17T05:05:00.039Z,16.88
2022-10-17T05:06:12.686Z,17.13
2022-10-17T05:07:14.337Z,16.25
2022-10-17T05:08:16.099Z,15.27
2022-10-17T05:09:17.770Z,15.15
2022-10-17T05:10:19.516Z,17.55
2022-10-17T05:11:27.340Z,15.90
2022-10-17T05:12:29.297Z,15.57
2022-10-17T05:13:31.691Z,15.90
2022-10-17T05:14:33.435Z,15.27
2022-10-17T05:15:35.915Z,16.08
2022-10-17T05:16:37.578Z,16.38
2022-10-17T05:17:39.330Z,16.38
2022-10-17T05:18:40.970Z,16.25
2022-10-17T05:19:42.665Z,16.75
2022-10-17T05:20:44.333Z,16.17
2022-10-17T05:21:45.989Z,16.67
2022-10-17T05:22:47.680Z,16.33
2022-10-17T05:23:49.731Z,15.88
2022-10-17T05:24:51.611Z,16.75
2022-10-17T05:25:55.799Z,17.17
2022-10-17T05:26:57.460Z,17.50
2022-10-17T05:27:59.106Z,17.02
2022-10-17T05:29:02.929Z,17.30
2022-10-17T05:30:06.001Z,16.77
2022-10-17T05:31:09.409Z,16.83
2022-10-17T05:32:11.073Z,15.80
2022-10-17T05:33:12.723Z,16.67
2022-10-17T05:34:14.378Z,16.88
2022-10-17T05:35:16.117Z,16.77
2022-10-17T05:36:17.802Z,17.85
2022-10-17T05:37:19.473Z,18.00
2022-10-17T05:38:21.135Z,17.65
2022-10-17T05:39:23.377Z,16.92
2022-10-17T05:40:25.068Z,16.38
2022-10-17T05:41:26.722Z,18.35
2022-10-17T05:42:28.749Z,16.83
2022-10-17T05:43:31.078Z,16.63
2022-10-17T05:44:33.367Z,17.70
2022-10-17T05:45:36.189Z,18.55
2022-10-17T05:46:37.836Z,16.88
2022-10-17T05:47:39.487Z,17.67
2022-10-17T05:48:41.259Z,17.30
2022-10-17T05:49:49.798Z,16.77
2022-10-17T05:51:05.140Z,17.40
2022-10-17T05:52:07.476Z,16.77
2022-10-17T05:53:09.129Z,16.05
2022-10-17T05:54:10.773Z,16.70
2022-10-17T05:55:12.525Z,16.55
2022-10-17T05:56:14.753Z,16.73
2022-10-17T05:57:16.482Z,17.77
2022-10-17T05:58:22.445Z,16.50
2022-10-17T05:59:28.928Z,17.08
2022-10-17T06:00:30.634Z,17.70
2022-10-17T06:01:32.517Z,16.70
2022-10-17T06:02:34.393Z,17.75
2022-10-17T06:03:36.141Z,18.42
2022-10-17T06:04:37.996Z,16.57
2022-10-17T06:05:39.646Z,17.83
2022-10-17T06:06:41.373Z,18.05
2022-10-17T06:07:43.499Z,18.27
2022-10-17T06:08:45.854Z,17.73
2022-10-17T06:09:47.507Z,18.40
2022-10-17T06:10:50.305Z,17.85
2022-10-17T06:11:52.027Z,18.17
2022-10-17T06:12:53.656Z,18.15
2022-10-17T06:13:55.307Z,18.17
2022-10-17T06:14:56.975Z,17.23
2022-10-17T06:15:58.660Z,17.42
2022-10-17T06:17:01.147Z,17.67
2022-10-17T06:18:02.817Z,18.25
2022-10-17T06:19:04.457Z,18.55
2022-10-17T06:20:06.721Z,18.23
2022-10-17T06:21:10.278Z,18.17
2022-10-17T06:22:11.931Z,19.02
2022-10-17T06:23:13.874Z,18.75
2022-10-17T06:24:15.652Z,18.40
2022-10-17T06:25:17.333Z,18.43
2022-10-17T06:26:19.066Z,18.45
2022-10-17T06:27:21.327Z,18.00
2022-10-17T06:28:23.021Z,18.10
2022-10-17T06:29:24.876Z,18.50
2022-10-17T06:30:26.539Z,19.05
2022-10-17T06:31:28.244Z,18.13
2022-10-17T06:32:30.293Z,20.50
2022-10-17T06:33:32.135Z,18.60
2022-10-17T06:34:33.795Z,18.27
2022-10-17T06:35:35.463Z,18.90
2022-10-17T06:36:37.118Z,17.60
2022-10-17T06:37:39.537Z,18.67
2022-10-17T06:38:41.562Z,18.98
2022-10-17T06:39:43.263Z,17.52
2022-10-17T06:40:44.923Z,17.80
2022-10-17T06:41:46.583Z,18.27
2022-10-17T06:42:48.283Z,18.20
2022-10-17T06:43:49.986Z,17.98
2022-10-17T06:44:51.644Z,17.90
2022-10-17T06:45:53.307Z,18.27
2022-10-17T06:46:54.997Z,18.52
2022-10-17T06:47:56.754Z,17.85
2022-10-17T06:48:58.390Z,16.55
2022-10-17T06:50:00.138Z,17.38
2022-10-17T06:51:02.855Z,17.42
2022-10-17T06:52:05.409Z,17.67
2022-10-17T06:53:07.097Z,17.23
2022-10-17T06:54:08.744Z,17.08
2022-10-17T06:55:10.398Z,16.60
2022-10-17T06:56:12.055Z,16.63
2022-10-17T06:57:13.740Z,17.85
2022-10-17T06:58:15.400Z,17.17
2022-10-17T06:59:17.126Z,17.13
2022-10-17T07:00:18.857Z,17.23
2022-10-17T07:01:20.712Z,16.42
2022-10-17T07:02:24.064Z,16.65
2022-10-17T07:03:25.778Z,16.25
2022-10-17T07:04:28.107Z,16.00
2022-10-17T07:05:29.781Z,15.70
2022-10-17T07:06:32.074Z,17.60
2022-10-17T07:07:33.802Z,16.52
2022-10-17T07:08:35.467Z,15.80
2022-10-17T07:09:37.286Z,16.33
2022-10-17T07:10:38.918Z,15.95
2022-10-17T07:11:40.581Z,16.02
2022-10-17T07:12:44.648Z,17.25
2022-10-17T07:13:46.500Z,16.35
2022-10-17T07:14:50.379Z,16.70
2022-10-17T07:15:52.215Z,15.35
2022-10-17T07:16:53.872Z,16.23
2022-10-17T07:17:55.598Z,15.88
2022-10-17T07:18:57.394Z,15.50
2022-10-17T07:19:59.081Z,15.82
2022-10-17T07:21:01.296Z,15.43
2022-10-17T07:22:02.948Z,15.45
2022-10-17T07:23:04.862Z,16.10
2022-10-17T07:24:07.491Z,15.48
2022-10-17T07:25:09.911Z,15.93
2022-10-17T07:26:14.270Z,16.30
2022-10-17T07:27:15.938Z,16.00
2022-10-17T07:28:17.636Z,15.82
2022-10-17T07:29:19.268Z,16.40
2022-10-17T07:30:21.888Z,15.55
2022-10-17T07:31:24.125Z,15.57
2022-10-17T07:32:25.881Z,16.77
2022-10-17T07:33:27.540Z,15.75
2022-10-17T07:34:31.333Z,15.95
2022-10-17T07:35:33.004Z,15.85
2022-10-17T07:36:34.681Z,15.48
2022-10-17T07:37:36.734Z,16.60
2022-10-17T07:38:38.990Z,15.00
2022-10-17T07:39:40.659Z,15.88
2022-10-17T07:40:42.512Z,15.63
2022-10-17T07:41:44.264Z,15.57
2022-10-17T07:42:45.923Z,15.57
2022-10-17T07:43:47.979Z,15.93
2022-10-17T07:44:49.683Z,15.98
2022-10-17T07:45:52.035Z,15.75
2022-10-17T07:46:53.821Z,15.32
2022-10-17T07:47:58.605Z,15.23
2022-10-17T07:49:00.279Z,15.40
2022-10-17T07:50:03.063Z,15.00
2022-10-17T07:51:07.982Z,15.73
2022-10-17T07:52:14.069Z,15.35
2022-10-17T07:53:15.777Z,15.15
2022-10-17T07:54:17.440Z,15.45
2022-10-17T07:55:19.157Z,14.30
2022-10-17T07:56:24.578Z,14.52
2022-10-17T07:57:26.266Z,14.88
2022-10-17T07:58:28.782Z,14.93
2022-10-17T07:59:30.512Z,14.75
2022-10-17T08:00:32.247Z,15.10
2022-10-17T08:01:33.988Z,14.50
2022-10-17T08:02:35.620Z,14.65
2022-10-17T08:03:37.297Z,14.25
2022-10-17T08:04:39.195Z,14.90
2022-10-17T08:05:40.843Z,14.25
2022-10-17T08:06:42.493Z,13.95
2022-10-17T08:07:44.186Z,14.15
2022-10-17T08:08:45.962Z,14.10
2022-10-17T08:09:48.166Z,14.23
2022-10-17T08:10:49.839Z,14.48
2022-10-17T08:11:51.493Z,14.13
2022-10-17T08:12:53.897Z,14.02
2022-10-17T08:13:56.058Z,14.15
2022-10-17T08:14:57.779Z,14.73
2022-10-17T08:16:01.563Z,14.27
2022-10-17T08:17:03.237Z,13.90
2022-10-17T08:18:04.895Z,14.82
2022-10-17T08:20:15.669Z,13.85
2022-10-17T08:21:17.329Z,14.02
2022-10-17T08:22:19.009Z,14.82
2022-10-17T08:23:20.886Z,13.85
2022-10-17T08:24:22.659Z,14.20
2022-10-17T08:25:24.958Z,14.23
2022-10-17T08:26:26.716Z,13.57
2022-10-17T08:27:28.908Z,13.98
2022-10-17T08:28:30.696Z,13.88
2022-10-17T08:29:32.897Z,13.97
2022-10-17T08:30:34.669Z,14.20
2022-10-17T08:31:36.356Z,13.95
2022-10-17T08:32:38.071Z,13.02
2022-10-17T08:33:39.968Z,13.50
2022-10-17T08:34:41.627Z,13.55
2022-10-17T08:35:43.286Z,13.60
2022-10-17T08:36:45.018Z,13.27
2022-10-17T08:37:46.723Z,12.48
2022-10-17T08:38:52.589Z,13.00
2022-10-17T08:39:54.744Z,13.40
2022-10-17T08:41:01.638Z,13.25
2022-10-17T08:42:09.021Z,12.85
2022-10-17T08:43:10.644Z,12.50
2022-10-17T08:44:23.322Z,13.48
2022-10-17T08:45:42.883Z,13.27
2022-10-17T08:46:48.151Z,13.40
2022-10-17T08:47:57.757Z,13.38
2022-10-17T08:49:02.632Z,14.25
2022-10-17T08:50:07.618Z,12.95
2022-10-17T08:51:12.498Z,12.87
2022-10-17T08:52:30.243Z,13.48
2022-10-17T08:53:50.679Z,13.02
2022-10-17T08:54:52.466Z,13.27
2022-10-17T08:55:55.136Z,13.48
2022-10-17T08:56:57.637Z,14.05
2022-10-17T08:57:59.530Z,13.15
2022-10-17T08:59:01.222Z,13.43
2022-10-17T09:00:03.343Z,14.20
2022-10-17T09:01:33.622Z,12.82
2022-10-17T09:02:50.404Z,12.77
2022-10-17T09:04:03.912Z,12.68
2022-10-17T09:05:27.217Z,12.70
2022-10-17T09:06:35.028Z,12.82
2022-10-17T09:07:47.516Z,12.88
2022-10-17T09:09:18.724Z,12.80
2022-10-17T09:10:56.848Z,12.77
2022-10-17T09:12:17.575Z,12.45
2022-10-17T09:13:41.060Z,12.77
2022-10-17T09:15:19.986Z,12.32
2022-10-17T09:16:57.070Z,12.27
2022-10-17T09:18:04.429Z,12.30
2022-10-17T09:19:25.706Z,13.43
2022-10-17T09:20:59.215Z,13.15
2022-10-17T09:22:10.477Z,12.52
2022-10-17T09:23:15.247Z,12.25
2022-10-17T09:24:40.749Z,13.18
2022-10-17T09:25:49.249Z,12.48
2022-10-17T09:26:51.912Z,13.43
2022-10-17T09:28:19.248Z,13.27
2022-10-17T09:29:24.050Z,12.13
2022-10-17T09:30:44.820Z,12.90
2022-10-17T09:32:13.946Z,12.57
2022-10-17T09:33:34.526Z,12.57
2022-10-17T09:34:37.561Z,15.18
2022-10-17T09:35:41.721Z,13.05
2022-10-17T09:36:44.085Z,13.38
2022-10-17T09:37:46.203Z,13.77
2022-10-17T09:38:52.479Z,13.05
2022-10-17T09:39:54.125Z,12.90
2022-10-17T09:40:58.977Z,12.73
2022-10-17T09:42:03.155Z,12.88
2022-10-17T09:43:06.885Z,13.95
2022-10-17T09:44:19.973Z,12.82
2022-10-17T09:45:27.580Z,12.40
2022-10-17T09:46:38.498Z,13.18
2022-10-17T09:48:10.232Z,12.25
2022-10-17T09:49:19.715Z,13.40
2022-10-17T09:50:24.350Z,12.65
2022-10-17T09:51:26.460Z,12.05
2022-10-17T09:52:39.321Z,12.63
2022-10-17T09:53:45.033Z,12.52
2022-10-17T09:54:48.186Z,13.13
2022-10-17T09:55:56.130Z,12.55
2022-10-17T09:57:06.541Z,13.40
2022-10-17T09:58:10.032Z,12.27
2022-10-17T09:59:32.537Z,12.40
2022-10-17T10:00:43.290Z,13.27
2022-10-17T10:01:44.987Z,12.90
2022-10-17T10:02:46.634Z,13.07
2022-10-17T10:03:49.463Z,13.07
2022-10-17T10:05:06.478Z,12.90
2022-10-17T10:06:17.162Z,13.23
2022-10-17T10:07:22.013Z,12.73
2022-10-17T10:08:29.431Z,12.23
2022-10-17T10:09:34.864Z,12.63
2022-10-17T10:10:43.009Z,12.00
2022-10-17T10:11:58.471Z,12.57
2022-10-17T10:13:06.336Z,12.05
2022-10-17T10:14:13.475Z,12.48
2022-10-17T10:15:34.406Z,12.13
2022-10-17T10:16:43.129Z,11.88
2022-10-17T10:17:44.815Z,11.77
2022-10-17T10:18:48.732Z,11.85
2022-10-17T10:19:53.351Z,11.80
2022-10-17T10:21:20.157Z,12.40
2022-10-17T10:22:25.784Z,12.02
2022-10-17T10:23:27.427Z,11.18
2022-10-17T10:24:31.223Z,10.80
2022-10-17T10:25:33.575Z,12.15
2022-10-17T10:26:47.580Z,11.97
2022-10-17T10:27:49.402Z,11.13
2022-10-17T10:29:07.814Z,11.82
2022-10-17T10:30:21.560Z,10.88
2022-10-17T10:31:33.582Z,11.07
2022-10-17T10:32:37.348Z,11.35
2022-10-17T10:33:45.905Z,10.63
2022-10-17T10:34:59.100Z,10.90
2022-10-17T10:36:04.380Z,11.75
2022-10-17T10:37:41.892Z,10.93
2022-10-17T10:38:57.131Z,11.53
2022-10-17T10:40:07.977Z,11.23
2022-10-17T10:41:11.013Z,11.18
2022-10-17T10:42:23.864Z,11.48
2022-10-17T10:43:45.353Z,11.32
2022-10-17T10:44:49.041Z,10.20
2022-10-17T10:45:51.855Z,10.55
2022-10-17T10:47:20.415Z,9.63
2022-10-17T10:48:30.245Z,10.40
2022-10-17T10:49:33.135Z,10.45
2022-10-17T10:50:45.166Z,10.20
2022-10-17T10:51:48.957Z,10.30
2022-10-17T10:53:24.839Z,10.15
2022-10-17T10:54:32.697Z,10.63
2022-10-17T10:55:45.101Z,10.40
2022-10-17T10:56:53.300Z,10.77
2022-10-17T10:58:01.293Z,9.85
2022-10-17T10:59:08.752Z,9.60
2022-10-17T11:00:17.369Z,10.02
2022-10-17T11:01:41.381Z,9.98
2022-10-17T11:02:46.072Z,9.27
2022-10-17T11:03:47.752Z,9.60
2022-10-17T11:05:36.079Z,9.68
2022-10-17T11:06:43.142Z,9.40
2022-10-17T11:07:58.809Z,9.00
2022-10-17T11:09:22.400Z,8.85
2022-10-17T11:10:33.038Z,9.68
2022-10-17T11:11:47.101Z,9.40
2022-10-17T11:13:05.069Z,9.75
2022-10-17T11:14:26.896Z,9.45
2022-10-17T11:15:42.767Z,9.60
2022-10-17T11:17:06.360Z,9.38
2022-10-17T11:18:29.726Z,9.27
2022-10-17T11:19:40.957Z,9.82
2022-10-17T11:20:58.442Z,9.23
2022-10-17T11:22:09.169Z,9.00
2022-10-17T11:23:21.636Z,9.32
2022-10-17T11:24:32.713Z,8.70
2022-10-17T11:25:36.848Z,9.20
2022-10-17T11:27:00.054Z,8.95
2022-10-17T11:28:05.318Z,9.30
2022-10-17T11:29:09.024Z,8.43
2022-10-17T11:30:17.179Z,9.05
2022-10-17T11:31:21.183Z,9.30
2022-10-17T11:32:44.305Z,9.25
2022-10-17T11:33:50.776Z,8.75
2022-10-17T11:34:59.799Z,9.43
2022-10-17T11:36:05.806Z,8.95
2022-10-17T11:37:23.105Z,9.13
2022-10-17T11:38:30.775Z,8.73
2022-10-17T11:39:41.947Z,8.80
2022-10-17T11:40:49.261Z,8.73
2022-10-17T11:42:03.245Z,8.57
2022-10-17T11:43:20.300Z,8.20
2022-10-17T11:44:29.651Z,9.00
2022-10-17T11:45:36.539Z,8.20
2022-10-17T11:46:41.606Z,8.60
2022-10-17T11:47:50.315Z,7.35
2022-10-17T11:48:54.732Z,7.45
2022-10-17T11:52:11.888Z,7.83
2022-10-17T11:53:23.238Z,8.57
2022-10-17T11:54:42.219Z,8.00
2022-10-17T11:55:45.707Z,8.18
2022-10-17T11:57:25.141Z,8.20
2022-10-17T11:58:47.827Z,7.63
2022-10-17T12:00:37.938Z,7.95
2022-10-17T12:01:49.163Z,8.95
2022-10-17T12:03:05.745Z,8.45
2022-10-17T12:04:27.973Z,8.05
2022-10-17T12:05:48.584Z,8.20
2022-10-17T12:07:05.178Z,8.20
2022-10-17T12:08:34.660Z,7.60
2022-10-17T12:09:53.297Z,7.95
2022-10-17T12:11:34.503Z,7.47
2022-10-17T12:12:38.149Z,8.38
2022-10-17T12:13:47.442Z,7.70
2022-10-17T12:14:49.093Z,7.47
2022-10-17T12:15:50.774Z,7.63
2022-10-17T12:16:53.488Z,7.63
2022-10-17T12:18:02.430Z,7.43
2022-10-17T12:19:06.473Z,7.90
2022-10-17T12:20:35.645Z,8.05
2022-10-17T12:21:57.658Z,7.47
2022-10-17T12:23:04.735Z,9.20
2022-10-17T12:24:42.324Z,7.60
2022-10-17T12:26:03.257Z,7.72
2022-10-17T12:27:28.526Z,7.63
2022-10-17T12:28:33.689Z,7.32
2022-10-17T12:29:35.532Z,7.43
2022-10-17T12:30:37.380Z,8.10
2022-10-17T12:31:39.061Z,7.95
2022-10-17T12:33:21.911Z,8.00
2022-10-17T12:34:24.563Z,7.35
2022-10-17T12:35:28.069Z,8.13
2022-10-17T12:36:37.384Z,7.53
2022-10-17T12:37:51.121Z,7.95
2022-10-17T12:39:21.559Z,7.50
2022-10-17T12:40:35.427Z,8.80
2022-10-17T12:41:40.173Z,7.68
2022-10-17T12:42:50.992Z,8.03
2022-10-17T12:43:54.228Z,6.97
2022-10-17T12:44:55.978Z,7.70
2022-10-17T12:46:02.181Z,7.70
2022-10-17T12:47:09.412Z,7.22
2022-10-17T12:48:11.600Z,7.20
2022-10-17T12:49:42.363Z,6.95
2022-10-17T12:51:34.806Z,7.10
2022-10-17T12:52:32.773Z,7.10
2022-10-17T12:53:51.026Z,7.15
2022-10-17T12:55:13.193Z,6.77
2022-10-17T12:56:42.034Z,6.95
2022-10-17T12:58:01.412Z,7.05
2022-10-17T12:59:09.850Z,6.95
2022-10-17T13:00:29.181Z,7.40
2022-10-17T13:01:33.185Z,6.80
2022-10-17T13:02:35.303Z,7.65
2022-10-17T13:03:44.376Z,7.05
2022-10-17T13:04:46.937Z,6.95
2022-10-17T13:05:54.904Z,7.30
2022-10-17T13:06:58.896Z,6.77
2022-10-17T13:08:04.781Z,7.22
2022-10-17T13:09:16.286Z,6.82
2022-10-17T13:10:24.420Z,7.68
2022-10-17T13:11:29.967Z,7.50
2022-10-17T13:12:40.253Z,7.43
2022-10-17T13:13:47.634Z,7.32
2022-10-17T13:14:51.448Z,7.32
2022-10-17T13:15:55.131Z,7.68
2022-10-17T13:17:02.214Z,7.60
2022-10-17T13:18:04.404Z,7.27
2022-10-17T13:19:24.036Z,7.65
2022-10-17T13:20:31.346Z,7.55
2022-10-17T13:21:33.668Z,7.78
2022-10-17T13:22:35.440Z,7.55
2022-10-17T13:23:37.959Z,7.40
2022-10-17T13:24:41.122Z,7.22
2022-10-17T13:25:42.767Z,7.95
2022-10-17T13:26:46.307Z,7.47
2022-10-17T13:27:49.313Z,7.43
2022-10-17T13:29:13.270Z,6.80
2022-10-17T13:30:32.847Z,6.88
2022-10-17T13:31:37.195Z,6.93
2022-10-17T13:32:40.693Z,6.72
2022-10-17T13:33:42.520Z,7.10
2022-10-17T13:34:44.286Z,6.88
2022-10-17T13:36:00.021Z,7.20
2022-10-17T13:37:06.188Z,6.78
2022-10-17T13:38:08.049Z,6.95
2022-10-17T13:39:17.228Z,6.97
2022-10-17T13:40:44.398Z,7.53
2022-10-17T13:41:50.488Z,7.05
2022-10-17T13:42:53.920Z,6.93
2022-10-17T13:43:58.061Z,6.60
2022-10-17T13:44:59.791Z,7.32
2022-10-17T13:46:25.358Z,6.63
2022-10-17T13:47:30.924Z,6.85
2022-10-17T13:48:37.975Z,7.55
2022-10-17T13:49:41.708Z,7.60
2022-10-17T13:50:44.878Z,7.47
2022-10-17T13:51:53.473Z,7.60
2022-10-17T13:53:32.000Z,7.95
2022-10-17T13:54:44.855Z,7.57
2022-10-17T13:56:26.418Z,7.50
2022-10-17T13:57:30.625Z,7.60
2022-10-17T13:58:41.757Z,7.35
2022-10-17T13:59:47.743Z,7.72
2022-10-17T14:00:52.439Z,7.50
2022-10-17T14:01:55.274Z,7.25
2022-10-17T14:02:56.969Z,7.30
2022-10-17T14:04:20.222Z,7.37
2022-10-17T14:05:23.722Z,7.53
2022-10-17T14:06:27.997Z,7.75
2022-10-17T14:08:09.926Z,7.55
2022-10-17T14:09:06.620Z,7.75
2022-10-17T14:10:38.490Z,7.28
2022-10-17T14:11:43.292Z,7.45
2022-10-17T14:12:49.195Z,7.85
2022-10-17T14:13:54.960Z,7.70
2022-10-17T14:15:12.441Z,7.93
2022-10-17T14:16:14.997Z,7.90
2022-10-17T14:17:24.201Z,7.65
2022-10-17T14:18:35.776Z,7.38
2022-10-17T14:19:38.363Z,8.23
2022-10-17T14:21:19.763Z,7.40
2022-10-17T14:22:27.859Z,7.90
2022-10-17T14:23:40.592Z,8.05
2022-10-17T14:24:43.469Z,7.90
2022-10-17T14:25:45.295Z,7.63
2022-10-17T14:26:51.960Z,7.88
2022-10-17T14:28:02.574Z,8.10
2022-10-17T14:29:17.492Z,8.10
2022-10-17T14:30:55.604Z,8.07
2022-10-17T14:32:17.647Z,7.80
2022-10-17T14:33:25.915Z,7.85
2022-10-17T14:34:32.338Z,8.27
2022-10-17T14:35:42.012Z,8.48
2022-10-17T14:36:52.952Z,8.30
2022-10-17T14:38:00.255Z,8.30
2022-10-17T14:39:03.754Z,8.18
2022-10-17T14:40:07.603Z,8.33
2022-10-17T14:42:40.541Z,8.48
2022-10-17T14:43:42.470Z,7.68
2022-10-17T14:44:50.536Z,8.55
2022-10-17T14:45:52.402Z,8.35
2022-10-17T14:47:05.980Z,8.32
2022-10-17T14:48:20.612Z,8.65